Time;durP1;ratioP1;P1;durP2;ratioP2;P2;SDS_P1;SDS_P2;PMS_P1;PMS_P2;Temp;Humidity;BMP_temperature;BMP_pressure;BME280_temperature;BME280_humidity;BME280_pressure;Samples;Min_cycle;Max_cycle;Signal;HPM_P1;HPM_P2
2022/03/18 00:00:33;;;;;;;16.20;9.77;;;;;;;9.75;53.10;102146.19;5085730;28;20399;-75
2022/03/18 00:03:02;;;;;;;18.17;10.32;;;;;;;9.94;53.53;102144.16;5082965;28;20043;-74
2022/03/18 00:05:32;;;;;;;13.95;8.80;;;;;;;10.15;50.17;102152.88;5076382;28;20059;-75
2022/03/18 00:08:00;;;;;;;15.82;9.27;;;;;;;10.18;50.90;102149.63;5082531;28;20055;-74
2022/03/18 00:10:29;;;;;;;15.57;9.52;;;;;;;10.12;49.98;102153.34;5086070;28;20056;-74
2022/03/18 00:12:57;;;;;;;18.73;9.52;;;;;;;10.16;49.30;102150.97;5084282;28;20060;-74
2022/03/18 00:15:27;;;;;;;13.52;8.18;;;;;;;10.29;48.66;102163.56;5086591;28;20048;-75
2022/03/18 00:17:56;;;;;;;15.38;8.57;;;;;;;10.51;47.28;102157.50;5082366;28;20060;-75
2022/03/18 00:20:24;;;;;;;14.82;9.27;;;;;;;10.51;48.07;102152.03;5083825;28;20052;-74
2022/03/18 00:22:52;;;;;;;15.00;9.07;;;;;;;10.43;47.91;102161.44;5087042;28;20407;-74
2022/03/18 00:25:20;;;;;;;18.33;9.10;;;;;;;10.35;48.19;102151.66;5081426;28;20395;-75
2022/03/18 00:27:48;;;;;;;15.27;9.10;;;;;;;10.35;48.03;102159.88;5087245;28;20055;-74
2022/03/18 00:30:18;;;;;;;15.90;8.80;;;;;;;10.47;47.07;102157.16;5082787;28;20052;-74
2022/03/18 00:32:49;;;;;;;13.48;9.00;;;;;;;10.60;46.56;102161.53;5063695;28;20045;-74
2022/03/18 00:35:35;;;;;;;14.50;9.23;;;;;;;10.60;46.19;102162.38;5083126;28;20059;-74
2022/03/18 00:38:03;;;;;;;15.73;9.38;;;;;;;10.65;46.79;102166.31;5086476;28;20063;-74
2022/03/18 00:40:32;;;;;;;14.98;9.23;;;;;;;10.62;47.20;102164.88;5083768;28;20044;-74
2022/03/18 00:43:03;;;;;;;16.77;9.50;;;;;;;10.56;47.06;102165.84;5080658;28;20036;-74
2022/03/18 00:45:32;;;;;;;12.60;8.50;;;;;;;10.51;46.70;102165.72;5083301;28;20040;-74
2022/03/18 00:53:33;;;;;;;14.32;8.73;;;;;;;10.64;45.81;102172.84;5091074;28;20051;-74
2022/03/18 00:56:01;;;;;;;14.07;8.55;;;;;;;10.70;45.59;102160.94;5080847;28;20070;-74
2022/03/18 00:58:29;;;;;;;18.88;9.82;;;;;;;10.77;45.49;102163.53;5080289;28;20052;-75
2022/03/18 01:00:57;;;;;;;13.27;8.98;;;;;;;10.70;46.09;102172.69;5076802;28;20398;-74
2022/03/18 01:03:25;;;;;;;15.35;9.00;;;;;;;10.80;45.60;102174.00;5084951;28;20036;-74
2022/03/18 01:05:53;;;;;;;18.08;9.65;;;;;;;10.88;46.03;102174.47;5083268;28;20044;-75
2022/03/18 01:08:21;;;;;;;14.50;8.52;;;;;;;10.94;45.49;102164.41;5079923;28;20513;-74
2022/03/18 01:10:49;;;;;;;13.10;9.38;;;;;;;10.94;45.34;102175.38;5080618;28;20056;-72
2022/03/18 01:13:17;;;;;;;18.15;9.65;;;;;;;10.95;45.22;102177.03;5082716;28;20044;-74
2022/03/18 01:15:45;;;;;;;15.25;9.20;;;;;;;11.01;44.64;102167.03;5086067;28;20055;-74
2022/03/18 01:18:14;;;;;;;14.48;9.70;;;;;;;11.08;44.60;102177.81;5083458;28;20040;-74
2022/03/18 01:20:42;;;;;;;15.15;10.40;;;;;;;11.00;45.02;102171.66;5082066;28;20055;-74
2022/03/18 01:23:11;;;;;;;15.48;9.95;;;;;;;11.07;45.55;102167.94;5085299;28;20506;-74
2022/03/18 01:25:39;;;;;;;17.05;10.25;;;;;;;11.05;44.77;102170.09;5080646;28;20055;-74
2022/03/18 01:28:08;;;;;;;16.73;9.20;;;;;;;10.97;44.99;102161.22;5091002;28;20051;-74
2022/03/18 01:30:45;;;;;;;13.20;9.20;;;;;;;10.95;45.65;102168.81;5088103;28;20052;-74
2022/03/18 01:33:36;;;;;;;14.90;9.30;;;;;;;10.93;45.24;102160.03;5084406;28;20041;-75
2022/03/18 01:36:08;;;;;;;18.17;10.30;;;;;;;10.94;46.80;102178.13;5082229;28;20395;-75
2022/03/18 01:38:44;;;;;;;16.70;10.10;;;;;;;10.95;45.68;102176.22;5080672;28;20051;-75
2022/03/18 01:41:12;;;;;;;19.15;11.50;;;;;;;11.06;45.32;102172.63;5075703;28;20068;-75
2022/03/18 01:43:44;;;;;;;16.65;9.85;;;;;;;11.10;45.16;102171.03;5080745;28;20047;-75
2022/03/18 01:46:14;;;;;;;18.88;11.00;;;;;;;11.09;45.29;102174.84;5079662;28;20043;-75
2022/03/18 01:48:43;;;;;;;16.02;9.82;;;;;;;11.08;45.36;102169.59;5085886;28;20036;-75
2022/03/18 01:51:15;;;;;;;17.65;9.82;;;;;;;11.04;45.66;102176.66;5074371;28;20395;-75
2022/03/18 01:53:45;;;;;;;16.45;9.88;;;;;;;11.00;45.76;102173.59;5080279;28;20509;-75
2022/03/18 01:56:14;;;;;;;15.65;11.15;;;;;;;10.99;47.36;102172.75;5079459;28;20048;-75
2022/03/18 01:58:41;;;;;;;15.57;9.70;;;;;;;10.97;46.35;102171.31;5081604;28;20037;-75
2022/03/18 02:01:09;;;;;;;18.02;10.02;;;;;;;10.95;46.64;102177.03;5086008;28;20032;-75
2022/03/18 02:03:38;;;;;;;15.32;10.65;;;;;;;10.97;46.24;102174.06;5078632;28;20052;-75
2022/03/18 02:06:07;;;;;;;13.52;9.65;;;;;;;10.89;47.22;102173.38;5086617;28;20434;-76
2022/03/18 02:08:35;;;;;;;16.90;10.88;;;;;;;10.80;47.05;102177.56;5076498;28;20063;-75
2022/03/18 02:11:03;;;;;;;14.77;9.77;;;;;;;10.78;47.74;102181.59;5077736;28;20036;-75
2022/03/18 02:13:31;;;;;;;15.43;9.68;;;;;;;10.81;48.53;102175.66;5079471;28;20044;-75
2022/03/18 02:16:03;;;;;;;17.25;10.65;;;;;;;10.80;48.33;102171.25;5080229;28;20048;-75
2022/03/18 02:18:31;;;;;;;18.30;10.50;;;;;;;10.86;47.08;102164.81;5077376;28;20045;-75
2022/03/18 02:20:59;;;;;;;19.15;10.65;;;;;;;10.84;47.75;102167.78;5081308;28;20036;-75
2022/03/18 02:23:27;;;;;;;16.95;10.18;;;;;;;10.79;47.66;102172.34;5081435;28;20056;-75
2022/03/18 02:25:56;;;;;;;17.17;11.07;;;;;;;10.73;47.70;102163.16;5078449;28;20060;-76
2022/03/18 02:28:23;;;;;;;15.73;10.43;;;;;;;10.75;48.47;102172.81;5081964;28;20048;-76
2022/03/18 02:30:52;;;;;;;16.10;10.48;;;;;;;10.73;47.84;102174.97;5089014;28;20056;-75
2022/03/18 02:33:21;;;;;;;17.67;10.48;;;;;;;10.75;48.12;102182.91;5061152;28;20051;-76
2022/03/18 02:35:54;;;;;;;15.88;10.10;;;;;;;10.69;47.82;102172.94;5089674;28;20407;-75
2022/03/18 02:38:23;;;;;;;16.45;10.75;;;;;;;10.65;48.79;102180.81;5076126;28;20052;-75
2022/03/18 02:40:51;;;;;;;16.27;10.52;;;;;;;10.64;48.16;102181.88;5079831;28;20048;-75
2022/03/18 02:43:19;;;;;;;15.60;10.45;;;;;;;10.59;48.32;102179.03;5081328;28;20499;-75
2022/03/18 02:45:46;;;;;;;16.35;10.68;;;;;;;10.74;48.28;102190.31;5089644;28;20043;-75
2022/03/18 02:48:14;;;;;;;24.15;10.85;;;;;;;10.83;47.74;102181.72;5074391;28;20055;-75
2022/03/18 02:50:42;;;;;;;19.27;10.68;;;;;;;10.75;49.42;102191.13;5088923;28;20056;-75
2022/03/18 02:53:10;;;;;;;18.02;10.30;;;;;;;10.73;47.91;102185.06;5074893;28;20057;-75
2022/03/18 02:55:38;;;;;;;14.77;10.30;;;;;;;10.77;49.14;102178.06;5088621;28;20048;-75
2022/03/18 02:58:06;;;;;;;18.60;10.63;;;;;;;10.68;49.20;102190.44;5074292;28;20044;-75
2022/03/18 03:00:34;;;;;;;18.48;11.43;;;;;;;10.71;48.56;102193.53;5080834;28;20062;-75
2022/03/18 03:03:02;;;;;;;19.00;11.32;;;;;;;10.67;48.96;102189.63;5074492;28;20041;-75
2022/03/18 03:08:17;;;;;;;17.13;9.80;;;;;;;10.62;49.20;102187.59;5081382;28;20048;-75
2022/03/18 03:10:45;;;;;;;16.20;10.48;;;;;;;10.55;49.87;102191.56;5079530;28;20036;-75
2022/03/18 03:13:13;;;;;;;18.60;10.55;;;;;;;10.58;49.89;102188.31;5081022;28;20040;-75
2022/03/18 03:15:41;;;;;;;20.27;11.25;;;;;;;10.55;49.57;102186.88;5084542;28;20051;-75
2022/03/18 03:18:09;;;;;;;16.88;10.48;;;;;;;10.59;49.31;102189.97;5074737;28;20514;-75
2022/03/18 03:20:37;;;;;;;19.73;11.18;;;;;;;10.62;49.90;102197.72;5076416;28;20060;-75
2022/03/18 03:23:05;;;;;;;17.77;10.82;;;;;;;10.61;49.68;102196.88;5078460;28;20043;-75
2022/03/18 03:25:33;;;;;;;20.42;11.40;;;;;;;10.65;49.38;102201.88;5068042;28;20048;-75
2022/03/18 03:28:01;;;;;;;18.05;10.82;;;;;;;10.65;49.95;102201.88;5088847;28;20048;-75
2022/03/18 03:30:29;;;;;;;16.83;10.85;;;;;;;10.56;49.65;102209.63;5083852;28;20052;-75
2022/03/18 03:32:57;;;;;;;18.85;11.30;;;;;;;10.52;49.97;102211.19;5081865;28;20510;-75
2022/03/18 03:35:26;;;;;;;22.55;12.00;;;;;;;10.51;50.45;102209.53;5089093;28;20052;-75
2022/03/18 03:37:54;;;;;;;20.30;12.18;;;;;;;10.57;50.08;102214.84;5089159;28;20045;-75
2022/03/18 03:40:22;;;;;;;24.80;11.50;;;;;;;10.53;50.12;102215.56;5088004;28;20043;-75
2022/03/18 03:42:50;;;;;;;21.33;12.73;;;;;;;10.51;50.93;102220.47;5080282;28;20372;-75
2022/03/18 03:45:18;;;;;;;19.73;11.85;;;;;;;10.45;50.76;102220.34;5081818;28;20044;-75
2022/03/18 03:47:46;;;;;;;18.25;12.48;;;;;;;10.44;50.90;102232.38;5083750;28;20062;-75
2022/03/18 03:50:14;;;;;;;17.27;11.45;;;;;;;10.38;51.64;102224.25;5080126;28;20498;-75
2022/03/18 03:52:42;;;;;;;17.85;12.20;;;;;;;10.36;52.01;102240.88;5083200;28;20052;-75
2022/03/18 03:55:12;;;;;;;22.25;12.68;;;;;;;10.40;51.54;102235.81;5081835;28;20048;-75
2022/03/18 03:57:41;;;;;;;15.43;10.98;;;;;;;10.35;52.61;102231.88;5087353;28;20052;-75
2022/03/18 04:00:11;;;;;;;19.80;11.48;;;;;;;10.28;51.90;102239.38;5085954;28;20126;-75
2022/03/18 04:02:38;;;;;;;20.52;12.35;;;;;;;10.31;52.39;102236.13;5090730;28;20052;-75
2022/03/18 04:05:08;;;;;;;16.20;11.63;;;;;;;10.32;51.62;102243.28;5086117;28;20055;-75
2022/03/18 04:07:38;;;;;;;19.20;12.25;;;;;;;10.30;51.30;102233.63;5080274;28;20063;-75
2022/03/18 04:10:08;;;;;;;16.27;11.05;;;;;;;10.39;50.84;102240.44;5079977;28;20048;-75
2022/03/18 04:12:37;;;;;;;22.13;10.95;;;;;;;10.41;50.60;102251.97;5088470;28;20044;-75
2022/03/18 04:15:09;;;;;;;18.88;11.20;;;;;;;10.41;50.58;102251.16;5081019;28;20115;-75
2022/03/18 04:17:38;;;;;;;19.13;11.23;;;;;;;10.37;50.86;102250.78;5088945;28;20387;-75
2022/03/18 04:20:09;;;;;;;20.20;11.88;;;;;;;10.44;49.57;102256.16;5093088;28;21498;-75
2022/03/18 04:22:38;;;;;;;17.75;10.65;;;;;;;10.35;51.18;102252.91;5085576;28;20056;-75
2022/03/18 04:25:07;;;;;;;16.63;10.65;;;;;;;10.30;50.24;102255.53;5090946;28;20470;-75
2022/03/18 04:27:35;;;;;;;16.83;9.95;;;;;;;10.26;51.49;102254.34;5087527;28;20494;-75
2022/03/18 04:30:06;;;;;;;22.23;10.70;;;;;;;10.28;49.60;102254.94;5081521;28;20047;-75
2022/03/18 04:32:34;;;;;;;21.73;10.38;;;;;;;10.38;49.44;102252.44;5085241;28;20044;-75
2022/03/18 04:35:03;;;;;;;16.20;10.35;;;;;;;10.47;48.07;102258.44;5090989;28;20062;-75
2022/03/18 04:37:31;;;;;;;17.15;10.65;;;;;;;10.51;48.86;102256.88;5082785;28;20047;-75
2022/03/18 04:39:59;;;;;;;14.98;10.50;;;;;;;10.63;47.05;102262.34;5081390;28;20510;-75
2022/03/18 04:42:27;;;;;;;17.27;10.52;;;;;;;10.67;46.29;102260.81;5079983;28;20044;-75
2022/03/18 04:44:55;;;;;;;17.85;10.20;;;;;;;10.69;46.06;102264.13;5089893;28;20047;-76
2022/03/18 04:47:23;;;;;;;18.13;10.82;;;;;;;10.64;47.13;102263.19;5068259;28;20049;-76
2022/03/18 04:49:51;;;;;;;22.27;11.65;;;;;;;10.65;46.33;102262.94;5092274;28;20032;-75
2022/03/18 04:52:19;;;;;;;16.23;10.27;;;;;;;10.68;45.71;102262.47;5088431;28;20043;-76
2022/03/18 04:54:46;;;;;;;16.73;10.25;;;;;;;10.61;46.34;102269.97;5086591;28;20048;-75
2022/03/18 04:57:20;;;;;;;17.75;11.05;;;;;;;10.62;46.55;102274.38;5089345;28;20486;-75
2022/03/18 04:59:54;;;;;;;19.77;11.73;;;;;;;10.63;46.47;102265.09;5084417;28;20047;-76
2022/03/18 05:02:22;;;;;;;21.02;10.98;;;;;;;10.64;45.85;102260.47;5082054;28;20044;-76
2022/03/18 05:04:53;;;;;;;20.85;11.88;;;;;;;10.61;46.42;102268.06;5066152;28;20048;-76
2022/03/18 05:07:22;;;;;;;19.67;11.73;;;;;;;10.57;46.15;102266.03;5085645;28;20044;-75
2022/03/18 05:09:50;;;;;;;17.63;10.88;;;;;;;10.59;46.51;102269.38;5087050;28;20059;-75
2022/03/18 05:12:19;;;;;;;19.48;11.45;;;;;;;10.59;45.72;102272.09;5082907;28;20052;-75
2022/03/18 05:14:53;;;;;;;18.05;10.68;;;;;;;10.59;45.72;102269.38;5091509;28;20055;-75
2022/03/18 05:17:21;;;;;;;18.40;11.07;;;;;;;10.61;46.12;102270.81;5084485;28;20063;-75
2022/03/18 05:19:49;;;;;;;18.80;11.27;;;;;;;10.53;46.35;102281.28;5089222;28;20129;-75
2022/03/18 05:22:17;;;;;;;15.93;10.98;;;;;;;10.50;46.11;102273.56;5087690;28;20051;-75
2022/03/18 05:24:46;;;;;;;19.63;11.30;;;;;;;10.48;45.91;102280.06;5084789;28;20049;-75
2022/03/18 05:27:13;;;;;;;19.48;11.85;;;;;;;10.46;47.29;102271.28;5089300;28;20043;-76
2022/03/18 05:29:41;;;;;;;20.73;11.18;;;;;;;10.46;45.88;102279.50;5086680;28;20071;-75
2022/03/18 05:32:09;;;;;;;20.05;12.02;;;;;;;10.45;46.16;102283.31;5090480;28;20032;-75
2022/03/18 05:34:37;;;;;;;20.58;11.40;;;;;;;10.44;46.11;102278.06;5077726;28;20040;-75
2022/03/18 05:37:06;;;;;;;21.33;11.05;;;;;;;10.46;47.17;102287.69;5093610;28;20070;-75
2022/03/18 05:39:35;;;;;;;18.55;11.13;;;;;;;10.40;46.54;102288.63;5084188;28;20044;-75
2022/03/18 05:42:04;;;;;;;18.52;11.30;;;;;;;10.31;47.37;102290.88;5087575;28;20051;-75
2022/03/18 05:44:32;;;;;;;21.77;11.85;;;;;;;10.27;46.96;102288.84;5090345;28;20055;-75
2022/03/18 05:47:00;;;;;;;18.77;11.52;;;;;;;10.34;46.91;102289.56;5088101;28;20040;-75
2022/03/18 05:49:28;;;;;;;17.45;11.55;;;;;;;10.27;47.24;102288.84;5057806;28;20056;-75
2022/03/18 05:51:57;;;;;;;17.98;11.65;;;;;;;10.32;47.46;102286.25;5081920;28;20044;-75
2022/03/18 05:54:24;;;;;;;19.05;10.45;;;;;;;10.41;47.48;102292.19;5077409;28;20052;-75
2022/03/18 05:56:53;;;;;;;19.25;11.13;;;;;;;10.33;46.81;102290.63;5079804;28;20043;-76
2022/03/18 05:59:22;;;;;;;20.33;11.45;;;;;;;10.29;46.91;102293.00;5080854;28;20052;-75
2022/03/18 06:01:53;;;;;;;23.40;12.63;;;;;;;10.30;47.32;102291.94;5086038;28;20044;-75
2022/03/18 06:04:22;;;;;;;17.65;11.07;;;;;;;10.37;47.57;102302.78;5089043;28;20051;-73
2022/03/18 06:06:50;;;;;;;19.75;11.23;;;;;;;10.42;47.90;102305.63;5080730;28;20051;-75
2022/03/18 06:12:06;;;;;;;18.83;11.93;;;;;;;10.45;46.95;102294.25;5084836;28;20088;-75
2022/03/18 06:14:34;;;;;;;21.40;11.93;;;;;;;10.56;47.15;102302.72;5086023;28;20040;-74
2022/03/18 06:17:04;;;;;;;17.85;11.38;;;;;;;10.50;47.27;102304.47;5090129;28;20059;-76
2022/03/18 06:19:34;;;;;;;19.98;11.30;;;;;;;10.64;47.71;102298.78;5087260;28;20052;-78
2022/03/18 06:22:02;;;;;;;19.13;12.00;;;;;;;10.77;49.95;102308.66;5087322;28;20043;-78
2022/03/18 06:24:30;;;;;;;22.85;12.68;;;;;;;10.82;51.08;102306.03;5064746;28;20052;-78
2022/03/18 06:27:00;;;;;;;18.20;12.00;;;;;;;10.82;47.87;102306.03;5076776;28;20490;-78
2022/03/18 06:29:29;;;;;;;20.70;11.73;;;;;;;10.91;49.41;102303.75;5077372;28;20045;-78
2022/03/18 06:31:59;;;;;;;20.08;12.55;;;;;;;10.97;50.79;102308.28;5077359;28;20048;-78
2022/03/18 06:34:27;;;;;;;21.13;12.25;;;;;;;10.95;48.57;102315.91;5090599;28;20047;-78
2022/03/18 06:37:03;;;;;;;18.10;11.93;;;;;;;11.01;51.28;102309.47;5070571;28;20052;-77
2022/03/18 06:39:31;;;;;;;18.08;11.27;;;;;;;11.05;49.23;102310.66;5086544;28;20055;-77
2022/03/18 06:42:00;;;;;;;18.80;11.88;;;;;;;11.10;49.23;102318.16;5090617;28;20055;-78
2022/03/18 06:44:28;;;;;;;20.30;12.13;;;;;;;11.08;48.11;102309.31;5088160;28;20394;-77
2022/03/18 06:46:56;;;;;;;22.52;12.38;;;;;;;11.10;48.27;102318.97;5086823;28;20044;-75
2022/03/18 06:49:24;;;;;;;18.45;12.15;;;;;;;11.02;46.49;102327.56;5081951;28;20517;-76
2022/03/18 06:51:52;;;;;;;22.23;12.00;;;;;;;11.24;47.03;102326.97;5091079;28;20044;-76
2022/03/18 06:54:20;;;;;;;21.15;12.45;;;;;;;11.38;46.61;102324.75;5090378;28;20044;-76
2022/03/18 06:56:48;;;;;;;27.02;12.82;;;;;;;11.38;45.86;102324.75;5091085;28;20118;-76
2022/03/18 06:59:16;;;;;;;20.48;12.48;;;;;;;11.37;46.13;102332.16;5089980;28;20044;-76
2022/03/18 07:01:44;;;;;;;24.45;13.50;;;;;;;11.38;46.02;102330.25;5093382;28;20494;-76
2022/03/18 07:04:13;;;;;;;21.70;12.85;;;;;;;11.35;45.70;102336.22;5091943;28;20122;-76
2022/03/18 07:06:41;;;;;;;20.48;12.43;;;;;;;11.34;46.34;102337.31;5093719;28;20048;-76
2022/03/18 07:09:08;;;;;;;20.50;12.20;;;;;;;11.43;46.56;102335.84;5093292;28;20051;-76
2022/03/18 07:11:36;;;;;;;20.05;13.25;;;;;;;11.70;45.08;102340.75;5094206;28;20399;-76
2022/03/18 07:14:04;;;;;;;25.55;12.77;;;;;;;11.70;45.77;102349.00;5094115;28;20406;-76
2022/03/18 07:19:19;;;;;;;21.88;12.85;;;;;;;11.81;45.44;102350.88;5094023;28;20490;-76
2022/03/18 07:21:46;;;;;;;21.88;13.13;;;;;;;12.14;45.03;102343.00;5093658;28;20055;-76
2022/03/18 07:24:14;;;;;;;22.63;14.65;;;;;;;12.16;44.58;102348.19;5094020;28;20490;-74
2022/03/18 07:26:42;;;;;;;20.98;13.32;;;;;;;12.26;43.97;102356.63;5093746;28;20040;-76
2022/03/18 07:29:10;;;;;;;19.85;13.13;;;;;;;12.12;44.46;102349.81;5094667;28;20479;-76
2022/03/18 07:31:38;;;;;;;26.45;13.32;;;;;;;12.38;44.83;102348.34;5094464;28;20047;-76
2022/03/18 07:34:06;;;;;;;21.73;13.40;;;;;;;12.41;44.77;102358.00;5094489;28;20036;-74
2022/03/18 07:36:34;;;;;;;22.30;13.77;;;;;;;12.29;44.72;102350.66;5093272;28;20521;-76
2022/03/18 07:39:02;;;;;;;25.10;13.60;;;;;;;12.42;44.91;102359.66;5093492;28;20048;-76
2022/03/18 07:41:30;;;;;;;20.25;13.23;;;;;;;12.42;45.14;102354.97;5093443;28;20649;-76
2022/03/18 07:43:58;;;;;;;22.55;13.15;;;;;;;12.46;44.41;102366.31;5094297;28;20048;-76
2022/03/18 07:46:27;;;;;;;20.42;13.63;;;;;;;12.65;44.31;102357.81;5093596;28;20063;-76
2022/03/18 07:48:55;;;;;;;20.92;12.63;;;;;;;12.89;44.38;102369.44;5093481;28;20044;-77
2022/03/18 07:51:23;;;;;;;22.00;13.00;;;;;;;12.89;43.87;102353.81;5075562;28;20047;-74
2022/03/18 07:53:51;;;;;;;26.48;13.48;;;;;;;13.56;43.77;102358.56;5093249;28;20055;-74
2022/03/18 07:56:19;;;;;;;21.67;13.38;;;;;;;13.44;42.97;102356.72;5093332;28;20048;-76
2022/03/18 07:58:47;;;;;;;19.73;12.98;;;;;;;13.67;41.37;102368.59;5093715;28;20055;-76
2022/03/18 08:01:15;;;;;;;17.58;11.60;;;;;;;13.82;39.60;102353.34;5093548;28;20040;-76
2022/03/18 08:03:43;;;;;;;19.10;11.90;;;;;;;14.38;37.90;102372.34;5093551;28;20040;-76
2022/03/18 08:06:11;;;;;;;20.63;10.35;;;;;;;14.14;38.13;102365.50;5093978;28;20039;-77
2022/03/18 08:08:40;;;;;;;17.42;10.40;;;;;;;14.01;38.19;102369.50;5093066;28;20048;-78
2022/03/18 08:11:12;;;;;;;15.82;10.48;;;;;;;14.15;37.15;102376.25;5091997;28;20052;-77
2022/03/18 08:13:50;;;;;;;18.08;10.90;;;;;;;13.91;38.41;102381.22;5093868;28;20040;-77
2022/03/18 08:16:18;;;;;;;17.52;10.50;;;;;;;14.01;37.72;102377.75;5093049;28;20074;-75
2022/03/18 08:18:46;;;;;;;16.80;10.65;;;;;;;14.34;37.66;102378.63;5093583;28;20479;-76
2022/03/18 08:21:17;;;;;;;14.68;10.40;;;;;;;14.37;36.90;102387.19;5092855;28;20053;-75
2022/03/18 08:23:45;;;;;;;16.80;10.55;;;;;;;14.39;37.27;102386.94;5092911;28;20052;-75
2022/03/18 08:26:13;;;;;;;19.33;11.30;;;;;;;14.75;36.72;102387.28;5092877;28;20052;-75
2022/03/18 08:28:44;;;;;;;23.52;11.30;;;;;;;14.50;37.55;102383.19;5092732;28;20044;-76
2022/03/18 08:31:12;;;;;;;17.00;11.27;;;;;;;14.85;36.77;102397.53;5092738;28;20052;-76
2022/03/18 08:33:40;;;;;;;16.20;11.57;;;;;;;14.51;36.78;102392.28;5092478;28;20044;-75
2022/03/18 08:36:08;;;;;;;15.98;10.63;;;;;;;14.15;36.79;102401.03;5092570;28;20399;-75
2022/03/18 08:38:36;;;;;;;16.80;10.18;;;;;;;14.37;36.82;102408.41;5093040;28;20047;-75
2022/03/18 08:41:04;;;;;;;18.48;11.85;;;;;;;14.17;38.68;102404.34;5092501;28;20491;-76
2022/03/18 08:43:32;;;;;;;17.85;11.38;;;;;;;14.12;37.43;102401.53;5091954;28;20060;-76
2022/03/18 08:46:01;;;;;;;20.42;12.63;;;;;;;14.46;37.43;102393.06;5092474;28;20506;-75
2022/03/18 08:48:29;;;;;;;19.05;11.70;;;;;;;13.93;37.65;102396.41;5074622;28;20055;-75
2022/03/18 08:50:57;;;;;;;19.33;11.13;;;;;;;14.12;37.93;102396.03;5074598;28;20066;-75
2022/03/18 08:53:25;;;;;;;20.48;11.45;;;;;;;13.95;37.78;102399.75;5092377;28;20495;-75
2022/03/18 08:55:54;;;;;;;17.33;11.45;;;;;;;14.36;37.72;102403.97;5092083;28;20044;-75
2022/03/18 08:58:24;;;;;;;17.83;11.30;;;;;;;14.09;37.94;102408.41;5091913;28;20059;-75
2022/03/18 09:00:52;;;;;;;20.65;10.85;;;;;;;14.32;36.86;102416.63;5092071;28;20051;-75
2022/03/18 09:03:20;;;;;;;18.23;11.02;;;;;;;14.60;37.75;102414.66;5092250;28;20048;-76
2022/03/18 09:05:49;;;;;;;19.67;11.02;;;;;;;14.66;36.59;102413.59;5092261;28;20506;-76
2022/03/18 09:08:17;;;;;;;22.02;11.23;;;;;;;14.41;36.60;102426.06;5092091;28;20051;-76
2022/03/18 09:10:44;;;;;;;16.77;11.20;;;;;;;14.30;36.91;102419.63;5092579;28;20044;-76
2022/03/18 09:13:12;;;;;;;21.40;12.05;;;;;;;14.41;37.48;102430.75;5092281;28;20058;-76
2022/03/18 09:15:41;;;;;;;19.27;10.85;;;;;;;14.49;36.55;102433.88;5091875;28;20040;-76
2022/03/18 09:18:10;;;;;;;15.43;11.07;;;;;;;14.67;36.56;102429.06;5073505;28;20482;-76
2022/03/18 09:20:38;;;;;;;16.27;11.65;;;;;;;14.34;36.96;102434.56;5091986;28;20067;-76
2022/03/18 09:23:08;;;;;;;19.65;11.00;;;;;;;14.56;37.29;102435.59;5090784;28;20048;-76
2022/03/18 09:25:36;;;;;;;18.83;11.38;;;;;;;14.45;37.38;102442.91;5091666;28;20051;-75
2022/03/18 09:28:05;;;;;;;19.25;11.77;;;;;;;14.04;38.16;102437.81;5091394;28;20048;-76
2022/03/18 09:30:50;;;;;;;20.17;12.30;;;;;;;13.79;38.48;102463.94;5092371;28;20071;-76
2022/03/18 09:33:19;;;;;;;19.52;11.90;;;;;;;13.72;39.19;102455.03;5091627;28;20406;-76
2022/03/18 09:35:46;;;;;;;20.55;13.13;;;;;;;13.81;38.91;102448.00;5091476;28;20044;-76
2022/03/18 09:38:15;;;;;;;18.73;12.45;;;;;;;13.59;39.13;102467.25;5091346;28;20051;-75
2022/03/18 09:40:43;;;;;;;17.58;12.05;;;;;;;13.68;39.16;102462.94;5091200;28;20410;-75
2022/03/18 09:43:38;;;;;;;19.58;12.05;;;;;;;13.74;38.87;102466.63;5090914;28;20052;-75
2022/03/18 09:46:11;;;;;;;17.15;10.57;;;;;;;13.77;38.06;102453.19;5092193;28;20044;-76
2022/03/18 09:49:01;;;;;;;17.95;11.70;;;;;;;13.74;38.09;102461.13;5090960;28;20048;-76
2022/03/18 09:51:29;;;;;;;15.52;11.10;;;;;;;13.79;38.02;102458.44;5091323;28;20052;-76
2022/03/18 09:54:30;;;;;;;22.40;12.80;;;;;;;14.19;37.77;102461.94;5091592;28;20055;-76
2022/03/18 09:56:59;;;;;;;18.23;11.23;;;;;;;13.98;37.79;102457.00;5090994;28;20410;-76
2022/03/18 09:59:27;;;;;;;17.67;11.18;;;;;;;14.07;38.15;102449.13;5073628;28;20066;-76
2022/03/18 10:02:27;;;;;;;16.88;11.35;;;;;;;14.28;37.97;102451.28;5091287;28;20403;-76
2022/03/18 10:04:58;;;;;;;17.85;11.27;;;;;;;14.59;38.57;102457.09;5080839;28;20055;-76
2022/03/18 10:07:27;;;;;;;24.67;12.30;;;;;;;14.32;37.61;102456.00;5090907;28;20411;-76
2022/03/18 10:10:15;;;;;;;19.30;11.75;;;;;;;14.20;37.70;102447.91;5090706;28;20044;-76
2022/03/18 10:12:47;;;;;;;17.05;10.65;;;;;;;14.16;37.96;102457.75;5072985;28;20399;-76
2022/03/18 10:15:18;;;;;;;20.13;12.00;;;;;;;14.63;37.92;102459.06;5091712;28;20040;-76
2022/03/18 10:17:56;;;;;;;18.27;11.90;;;;;;;14.84;36.99;102463.94;5090850;28;20059;-76
2022/03/18 10:20:27;;;;;;;18.83;12.60;;;;;;;15.20;36.97;102458.69;5078399;28;20067;-76
2022/03/18 10:22:57;;;;;;;20.60;13.02;;;;;;;14.47;37.95;102469.09;5091628;28;20052;-76
2022/03/18 10:25:40;;;;;;;24.73;11.45;;;;;;;14.71;37.77;102474.28;5090632;28;20048;-75
2022/03/18 10:28:10;;;;;;;17.17;9.60;;;;;;;14.56;36.27;102472.22;5073038;28;20501;-76
2022/03/18 10:30:38;;;;;;;18.00;9.65;;;;;;;14.72;35.46;102473.19;5090648;28;20138;-76
2022/03/18 10:33:12;;;;;;;20.83;10.13;;;;;;;14.49;35.88;102483.47;5090727;28;20407;-76
2022/03/18 10:38:35;;;;;;;17.60;10.73;;;;;;;14.64;35.73;102476.44;5094429;28;20044;-76
2022/03/18 10:41:23;;;;;;;15.98;8.98;;;;;;;14.49;36.17;102483.47;5094740;28;20055;-76
2022/03/18 10:43:55;;;;;;;15.38;10.05;;;;;;;14.06;35.79;102496.19;5076823;28;20040;-76
2022/03/18 10:46:23;;;;;;;14.50;9.45;;;;;;;13.88;37.88;102489.09;5094635;28;20048;-76
2022/03/18 10:49:07;;;;;;;17.85;10.55;;;;;;;14.20;36.74;102486.47;5094843;28;20036;-76
2022/03/18 10:51:35;;;;;;;17.10;9.65;;;;;;;14.02;36.40;102501.38;5077533;28;20051;-76
2022/03/18 10:54:03;;;;;;;15.68;8.90;;;;;;;13.46;37.25;102498.66;5094553;28;20035;-75
2022/03/18 10:56:52;;;;;;;14.85;8.98;;;;;;;13.75;37.81;102504.03;5095408;28;20513;-75
2022/03/18 10:59:21;;;;;;;12.75;8.50;;;;;;;13.62;36.22;102502.47;5080801;28;20040;-76
2022/03/18 11:01:50;;;;;;;11.77;8.55;;;;;;;13.54;36.50;102503.78;5095234;28;20051;-76
2022/03/18 11:04:20;;;;;;;15.18;8.32;;;;;;;13.59;35.97;102492.81;5094325;28;20048;-76
2022/03/18 11:12:48;;;;;;;14.10;8.45;;;;;;;13.49;36.71;102501.75;4992700;28;20047;-76
2022/03/18 11:15:16;;;;;;;12.63;8.35;;;;;;;13.52;35.74;102489.41;5032529;28;20049;-75
2022/03/18 11:17:45;;;;;;;8.88;6.90;;;;;;;13.41;36.46;102494.72;5054413;28;20040;-75
2022/03/18 11:20:14;;;;;;;12.15;8.50;;;;;;;13.36;37.08;102491.09;5053336;28;20040;-75
2022/03/18 11:22:43;;;;;;;11.63;7.95;;;;;;;13.37;35.42;102488.09;5054182;28;20052;-74
2022/03/18 11:25:15;;;;;;;13.13;7.45;;;;;;;13.46;36.66;102485.78;5053644;28;20056;-74
2022/03/18 11:27:44;;;;;;;15.02;7.68;;;;;;;13.73;35.87;102490.53;5054082;28;20052;-74
2022/03/18 11:30:30;;;;;;;13.13;7.50;;;;;;;14.07;35.43;102489.56;5053930;28;20044;-74
2022/03/18 11:33:10;;;;;;;14.10;7.53;;;;;;;14.14;35.35;102487.50;5054037;28;20064;-74
2022/03/18 11:35:50;;;;;;;9.35;6.35;;;;;;;13.85;35.37;102501.44;5041022;28;20053;-75
2022/03/18 11:38:19;;;;;;;9.25;6.25;;;;;;;13.50;34.79;102508.09;5053814;28;20041;-75
2022/03/18 11:40:57;;;;;;;14.05;7.68;;;;;;;13.25;35.90;102490.09;5053577;28;20045;-74
2022/03/18 11:43:32;;;;;;;10.93;7.13;;;;;;;13.60;35.08;102501.91;5053299;28;20522;-74
2022/03/18 11:46:21;;;;;;;12.98;7.03;;;;;;;13.70;35.19;102494.63;5052974;28;20045;-75